Skip Navigation Links Skip Navigation Links

Current Weather

Chicago Midway, Chicago

For information only: do not use for flight planning or navigation.
Latest weather
Observation time Monday, December 16, 2019 2:53 AM CST
Local time Monday, December 16, 2019 3:01 AM CST
Flight conditions Visual Meteorological Conditions
Winds
Wind direction North-Northwest (340°)
Wind speed 5 mph
Visibility 6 mi.
Present weather light snow, mist
Sky condition
Ceiling 4,400 ft. overcast
Cloud layer overcast 4,400 ft.
Temperature 26°F
Dewpoint 21°F
Altimeter 30.15 in.Hg
Pressure change last 3 hours-0.03 in.Hg
Pressure rising more quickly
Precipitation
Precipitation last hour trace
Precipitation last 3 hours trace
Derived measurements
Relative humidity 81%
Wind chill 21°F
Density altitude -1836 ft.
Sea-level pressure 30.19 in.Hg
Remarks
Automated weather observing station with precipitation discriminator.
METAR KMDW 160853Z 34004KT 6SM -SN BR OVC044 M03/M06 A3015 RMK AO2 SLP222 P0000 60000 T10331061 53010

Settings

Location code

InnerDrive.Weather 4.0.6770.0 Release CLR 4.0.30319.42000
Copyright ©2018 Inner Drive Technology. All rights reserved. Portions Copyright ©1986-2018 David Braverman.

Find weather

Site navigation


Skip Navigation Links

Place info

Page info

PayPal - The safer, easier way to pay online!

Return home.

Copyright ©2019 Inner Drive Technology. Purveyors of fine, hand-crafted computer software. Page printed 2019-12-16T09:01:48 UTC.